createdAt,value
2018-11-06T10:17:42.321Z,25.20
2018-11-06T10:20:21.252Z,25.30
2018-11-06T10:23:00.418Z,25.20
2018-11-06T10:25:39.149Z,25.20
2018-11-06T10:28:18.596Z,25.30
2018-11-06T10:30:59.484Z,25.40
2018-11-06T10:33:39.232Z,25.40
2018-11-06T10:36:18.538Z,25.30
2018-11-06T10:39:01.169Z,25.30
2018-11-06T10:41:40.323Z,25.20
2018-11-06T10:44:19.620Z,25.20
2018-11-06T10:46:58.066Z,25.20
2018-11-06T10:49:36.665Z,25.20
2018-11-06T10:52:15.154Z,25.20
2018-11-06T10:54:54.613Z,25.20
2018-11-06T10:57:34.191Z,25.20
2018-11-06T11:00:18.402Z,25.20
2018-11-06T11:03:00.819Z,25.20
2018-11-06T11:05:40.099Z,25.20
2018-11-06T11:08:19.552Z,25.10
2018-11-06T11:10:58.471Z,25.10
2018-11-06T11:13:37.954Z,25.10
2018-11-06T11:16:17.087Z,25.10
2018-11-06T11:18:55.550Z,25.10
2018-11-06T11:21:38.200Z,25.10
2018-11-06T11:24:16.862Z,25.10
2018-11-06T11:26:55.721Z,25.10
2018-11-06T11:29:34.672Z,25.10
2018-11-06T11:32:13.522Z,25.10
2018-11-06T11:34:52.266Z,25.10
2018-11-06T11:37:32.088Z,25.10
2018-11-06T11:40:11.982Z,25.10
2018-11-06T11:42:51.096Z,25.10
2018-11-06T11:45:29.796Z,25.10
2018-11-06T11:48:08.872Z,25.10
2018-11-06T11:50:47.228Z,25.10
2018-11-06T11:53:26.246Z,25.10
2018-11-06T11:56:05.912Z,25.10
2018-11-06T11:58:45.635Z,25.10
2018-11-06T12:01:25.405Z,25.10
2018-11-06T12:04:04.296Z,25.10
2018-11-06T12:06:43.133Z,25.10
2018-11-06T12:09:21.987Z,25.10
2018-11-06T12:12:01.593Z,25.10
2018-11-06T12:14:40.612Z,25.10
2018-11-06T12:17:20.193Z,25.10
2018-11-06T12:19:58.952Z,25.10
2018-11-06T12:22:38.461Z,25.10
2018-11-06T12:25:18.094Z,25.10
2018-11-06T12:27:56.730Z,25.10
2018-11-06T12:30:35.812Z,25.10
2018-11-06T12:33:14.494Z,25.10
2018-11-06T12:35:53.450Z,25.10
2018-11-06T12:38:32.189Z,25.10
2018-11-06T12:41:11.160Z,25.10
2018-11-06T12:43:50.169Z,25.10
2018-11-06T12:46:29.235Z,25.10
2018-11-06T12:49:07.828Z,25.00
2018-11-06T12:51:46.549Z,25.00
2018-11-06T12:54:24.911Z,25.10
2018-11-06T12:57:04.597Z,25.10
2018-11-06T12:59:43.217Z,25.00
2018-11-06T13:02:22.252Z,25.00
2018-11-06T13:05:00.927Z,25.00
2018-11-06T13:07:40.987Z,25.00
2018-11-06T13:10:19.634Z,25.00
2018-11-06T13:12:58.436Z,25.00
2018-11-06T13:15:38.096Z,25.00
2018-11-06T13:18:16.859Z,25.00
2018-11-06T13:20:55.501Z,25.00
2018-11-06T13:23:34.353Z,25.00
2018-11-06T13:26:12.966Z,25.00
2018-11-06T13:28:53.613Z,25.00
2018-11-06T13:31:32.351Z,25.00
2018-11-06T13:34:11.257Z,25.00
2018-11-06T13:36:49.821Z,25.00
2018-11-06T13:39:28.821Z,25.00
2018-11-06T13:42:07.947Z,25.00
2018-11-06T13:44:48.086Z,25.00
2018-11-06T13:47:26.523Z,25.00
2018-11-06T13:50:05.584Z,25.00
2018-11-06T13:52:44.073Z,25.00
2018-11-06T13:55:22.915Z,25.00
2018-11-06T13:58:01.699Z,25.00
2018-11-06T14:00:40.748Z,25.00
2018-11-06T14:03:19.390Z,25.00
2018-11-06T14:05:58.258Z,25.00
2018-11-06T14:08:37.024Z,25.00
2018-11-06T14:11:15.578Z,25.00
2018-11-06T14:13:53.907Z,25.00
2018-11-06T14:16:33.058Z,25.00
2018-11-06T14:19:12.235Z,25.00
2018-11-06T14:21:51.135Z,25.00
2018-11-06T14:24:29.808Z,25.00
2018-11-06T14:27:08.845Z,25.00
2018-11-06T14:29:47.944Z,25.00
2018-11-06T14:32:28.100Z,25.00
2018-11-06T14:35:06.901Z,25.00
2018-11-06T14:37:47.690Z,25.00
2018-11-06T14:40:26.724Z,25.00
2018-11-06T14:43:05.779Z,25.00
2018-11-06T14:45:44.298Z,25.00
2018-11-06T14:48:23.181Z,25.00
2018-11-06T14:51:01.868Z,25.00
2018-11-06T14:53:40.697Z,25.00
2018-11-06T14:56:19.227Z,25.00
2018-11-06T14:58:57.991Z,25.00
2018-11-06T15:01:36.770Z,25.00
2018-11-06T15:05:44.219Z,25.00
2018-11-06T15:08:23.041Z,25.00
2018-11-06T15:11:02.088Z,25.00
2018-11-06T15:13:40.762Z,25.00
2018-11-06T15:16:19.397Z,25.00
2018-11-06T15:18:57.947Z,25.00
2018-11-06T15:21:37.090Z,25.00
2018-11-06T15:24:16.697Z,25.00
2018-11-06T15:26:55.703Z,25.00
2018-11-06T15:29:34.241Z,25.00
2018-11-06T15:32:13.192Z,25.00
2018-11-06T15:34:52.027Z,25.00
2018-11-06T15:37:35.246Z,25.00
2018-11-06T15:40:16.147Z,25.10
2018-11-06T15:42:58.484Z,25.10
2018-11-06T15:45:37.985Z,25.10
2018-11-06T15:48:20.336Z,25.10
2018-11-06T15:50:59.122Z,25.10
2018-11-06T15:53:38.304Z,25.10
2018-11-06T15:56:16.946Z,25.10
2018-11-06T15:58:56.453Z,25.10
2018-11-06T16:01:35.798Z,25.10
2018-11-06T16:04:14.700Z,25.20
2018-11-06T16:06:53.190Z,25.20
2018-11-06T16:09:32.999Z,25.10
2018-11-06T16:12:14.987Z,25.10
2018-11-06T16:14:53.576Z,25.10
2018-11-06T16:17:32.110Z,25.10
2018-11-06T16:20:12.366Z,25.10
2018-11-06T16:22:51.067Z,25.10
2018-11-06T16:25:30.731Z,25.10
2018-11-06T16:28:09.361Z,25.10
2018-11-06T16:30:48.156Z,25.00
2018-11-06T16:33:27.106Z,25.00
2018-11-06T16:36:08.384Z,25.00
2018-11-06T16:38:49.563Z,25.00
2018-11-06T16:41:29.665Z,25.00
2018-11-06T16:44:11.967Z,25.00
2018-11-06T16:46:50.804Z,25.00
2018-11-06T16:49:29.269Z,25.00
2018-11-06T16:52:07.968Z,25.00
2018-11-06T16:54:46.574Z,25.00
2018-11-06T16:57:25.470Z,25.00
2018-11-06T17:00:04.134Z,25.00
2018-11-06T17:02:43.597Z,25.00
2018-11-06T17:05:22.154Z,25.00
2018-11-06T17:08:00.784Z,25.00
2018-11-06T17:17:35.290Z,25.00
2018-11-06T17:20:14.848Z,25.10
2018-11-06T17:25:42.700Z,25.20
2018-11-06T17:28:23.341Z,25.20
2018-11-06T17:31:04.087Z,25.20
2018-11-06T17:37:33.078Z,25.20
2018-11-06T17:40:14.132Z,25.20
2018-11-06T17:42:54.849Z,25.20
2018-11-06T17:45:35.851Z,25.20
2018-11-06T17:48:15.222Z,25.20
2018-11-06T17:50:55.933Z,25.20
2018-11-06T17:56:23.846Z,25.20
2018-11-06T17:59:08.247Z,25.20
2018-11-06T18:01:48.470Z,25.20
2018-11-06T18:04:29.644Z,25.20
2018-11-06T18:07:14.321Z,25.20
2018-11-06T18:09:55.284Z,25.20
2018-11-06T18:12:39.026Z,25.20
2018-11-06T18:15:22.562Z,25.20
2018-11-06T18:18:01.465Z,25.20
2018-11-06T18:20:43.471Z,25.20
2018-11-06T18:23:22.703Z,25.20
2018-11-06T18:26:01.471Z,25.20
2018-11-06T18:28:43.796Z,25.20
2018-11-06T18:31:28.000Z,25.20
2018-11-06T18:34:08.351Z,25.20
2018-11-06T18:36:52.620Z,25.20
2018-11-06T18:39:33.987Z,25.20
2018-11-06T18:42:14.751Z,25.20
2018-11-06T18:44:55.432Z,25.20
2018-11-06T18:47:35.129Z,25.20
2018-11-06T18:50:15.907Z,25.20
2018-11-06T18:52:54.706Z,25.20
2018-11-06T18:55:35.092Z,25.20
2018-11-06T18:58:15.377Z,25.20
2018-11-06T19:00:57.312Z,25.20
2018-11-06T19:03:37.656Z,25.20
2018-11-06T19:06:18.363Z,25.20
2018-11-06T19:08:57.787Z,25.20
2018-11-06T19:11:43.836Z,25.20
2018-11-06T19:14:23.584Z,25.20
2018-11-06T19:17:03.242Z,25.20
2018-11-06T19:19:44.451Z,25.20
2018-11-06T19:22:28.288Z,25.20
2018-11-06T19:25:08.026Z,25.20
2018-11-06T19:27:48.054Z,25.20
2018-11-06T19:30:30.337Z,25.20
2018-11-06T19:33:11.025Z,25.20
2018-11-06T19:35:50.540Z,25.20
2018-11-06T19:38:29.352Z,25.20
2018-11-06T19:41:08.433Z,25.20
2018-11-06T19:43:47.176Z,25.20
2018-11-06T19:46:25.867Z,25.20
2018-11-06T19:49:05.586Z,25.20
2018-11-06T19:51:44.382Z,25.20
2018-11-06T19:54:25.062Z,25.20
2018-11-06T19:57:04.184Z,25.20
2018-11-06T19:59:43.124Z,25.20
2018-11-06T20:02:22.163Z,25.20
2018-11-06T20:05:01.200Z,25.20
2018-11-06T20:07:39.928Z,25.10
2018-11-06T20:10:20.139Z,25.10
2018-11-06T20:12:58.705Z,25.10
2018-11-06T20:15:37.446Z,25.00
2018-11-06T20:18:16.024Z,25.00
2018-11-06T20:20:54.794Z,25.00
2018-11-06T20:23:33.499Z,25.00
2018-11-06T20:26:12.559Z,25.00
2018-11-06T20:28:51.123Z,25.00
2018-11-06T20:31:29.986Z,25.00
2018-11-06T20:34:08.607Z,24.90
2018-11-06T20:36:47.479Z,24.90
2018-11-06T20:39:26.014Z,24.90
2018-11-06T20:42:05.030Z,24.90
2018-11-06T20:44:43.788Z,24.90
2018-11-06T20:47:22.799Z,24.90
2018-11-06T20:50:01.592Z,24.90
2018-11-06T20:52:40.659Z,24.90
2018-11-06T20:55:19.861Z,24.90
2018-11-06T20:58:00.790Z,24.90
2018-11-06T21:00:39.241Z,24.90
2018-11-06T21:03:18.281Z,24.80
2018-11-06T21:05:56.954Z,24.80
2018-11-06T21:08:35.611Z,24.80
2018-11-06T21:11:14.150Z,24.80
2018-11-06T21:13:53.119Z,24.80
2018-11-06T21:16:31.718Z,24.80
2018-11-06T21:19:10.643Z,24.80
2018-11-06T21:21:49.450Z,24.80
2018-11-06T21:24:28.223Z,24.80
2018-11-06T21:27:06.940Z,24.80
2018-11-06T21:29:45.719Z,24.80
2018-11-06T21:32:24.248Z,24.80
2018-11-06T21:35:03.154Z,24.80
2018-11-06T21:37:41.849Z,24.80
2018-11-06T21:40:22.198Z,24.70
2018-11-06T21:43:00.748Z,24.70
2018-11-06T21:45:39.701Z,24.70
2018-11-06T21:48:18.387Z,24.70
2018-11-06T21:50:57.573Z,24.70
2018-11-06T21:53:36.090Z,24.70
2018-11-06T21:56:14.967Z,24.60
2018-11-06T21:58:53.502Z,24.70
2018-11-06T22:01:32.605Z,24.60
2018-11-06T22:04:11.268Z,24.60
2018-11-06T22:06:50.119Z,24.60
2018-11-06T22:09:28.697Z,24.60
2018-11-06T22:12:07.706Z,24.60
2018-11-06T22:14:46.522Z,24.60
2018-11-06T22:17:25.568Z,24.70
2018-11-06T22:20:04.349Z,24.70
2018-11-06T22:22:43.583Z,24.70
2018-11-06T22:25:22.134Z,24.70
2018-11-06T22:28:01.087Z,24.70
2018-11-06T22:30:39.889Z,24.70
2018-11-06T22:33:19.025Z,24.70
2018-11-06T22:35:57.569Z,24.70
2018-11-06T22:38:36.447Z,24.70
2018-11-06T22:41:15.009Z,24.70
2018-11-06T22:43:53.969Z,24.80
2018-11-06T22:46:32.548Z,24.70
2018-11-06T22:49:11.409Z,24.70
2018-11-06T22:51:49.877Z,24.70
2018-11-06T22:54:29.554Z,24.70
2018-11-06T22:57:08.026Z,24.70
2018-11-06T22:59:46.744Z,24.70
2018-11-06T23:02:25.396Z,24.70
2018-11-06T23:05:07.023Z,24.70
2018-11-06T23:07:49.901Z,24.70
2018-11-06T23:10:28.578Z,24.70
2018-11-06T23:13:07.114Z,24.70
2018-11-06T23:15:45.871Z,24.70
2018-11-06T23:18:24.465Z,24.70
2018-11-06T23:21:03.698Z,24.70
2018-11-06T23:23:42.424Z,24.70
2018-11-06T23:26:21.244Z,24.70
2018-11-06T23:28:59.858Z,24.70
2018-11-06T23:31:38.948Z,24.70
2018-11-06T23:34:17.608Z,24.60
2018-11-06T23:36:56.489Z,24.70
2018-11-06T23:39:35.251Z,24.60
2018-11-06T23:42:14.261Z,24.70
2018-11-06T23:44:52.813Z,24.70
2018-11-06T23:47:31.962Z,24.60
2018-11-06T23:50:11.187Z,24.70
2018-11-06T23:52:50.142Z,24.70
2018-11-06T23:55:28.744Z,24.60
2018-11-06T23:58:07.591Z,24.60
